首页
METAR-TAF:

METAR-TAF

机场 :

Ponta Delgada, 亚速尔群岛, 葡萄牙

纬度: 37-44N, 经度: 025-42W, 海拔: 71米

当前天气观测

该预报发布于16分钟前的02:00 UTC
风速12节,风向东北,有时为23节阵风,在东转东北之间变化
温度 19°C
湿度 88%
气压 1025 hPa
能见度10公里或以上
少量云层高于1000英尺
多云层高于1300英尺
小阵雨

METAR: LPPD 210200Z 04012G23KT 350V070 9999 -SHRA FEW010 BKN013 19/17 Q1025

时间: 02:16 (02:16 UTC)

预报

该预报发布于3小时和16分钟前的23:00 UTC
预报有效从21日的 00点(UTC)到 21日的 24点(UTC)
风速13节,风向北转东北
能见度10公里或以上
少量云层高于1000英尺
散云层高于1800英尺
短暂存在
从 21日的 00点(UTC)到 21日的 24点(UTC)
风速18节,风向北转东北,有时为28节阵风
散云层高于800英尺
多云层高于1500英尺
几率 40% :
短暂存在
从 21日的 00点(UTC)到 21日的 24点(UTC)
能見度: 3000
少量云层高于300英尺
多云层高于600英尺
雨, 毛毛雨, 轻雾

TAF: LPPD 202300Z 2100/2124 03013KT 9999 FEW010 SCT018 TEMPO 2100/2124 03018G28KT SCT008 BKN015 PROB40 TEMPO 2100/2124 3000 RADZ BR FEW003 BKN006

超过4000个机场的气象观测和天气预报(METAR&TAF报告)。

可查询的气象台以黄色和红色小点在地图上表示。

将鼠标移到小点上方,可查看气象台名称。

然后点击查看天气观测和预报。

如需切换地图:点击带黑十字的绿色按钮放大地图;点击带横线的绿色按钮缩小地图;或者点击绿色箭头查看邻近地区的地图。


METAR-TAF: